Time;durP1;ratioP1;P1;durP2;ratioP2;P2;SDS_P1;SDS_P2;PMS_P1;PMS_P2;Temp;Humidity;BMP_temperature;BMP_pressure;BME280_temperature;BME280_humidity;BME280_pressure;Samples;Min_cycle;Max_cycle;Signal;HPM_P1;HPM_P2
2021/10/03 00:00:54;;;;;;;;;;;;;;;14.39;100.00;100170.19;5073429;28;20019;-70
2021/10/03 00:03:22;;;;;;;;;;;;;;;14.36;100.00;100159.59;5073175;28;20014;-70
2021/10/03 00:05:48;;;;;;;;;;;;;;;14.47;100.00;100167.53;5073040;28;20418;-69
2021/10/03 00:08:15;;;;;;;;;;;;;;;14.47;100.00;100172.13;5073134;28;19924;-69
2021/10/03 00:10:42;;;;;;;;;;;;;;;14.44;100.00;100169.72;5072772;28;19964;-69
2021/10/03 00:13:10;;;;;;;;;;;;;;;14.42;100.00;100164.44;5073091;28;19960;-69
2021/10/03 00:15:37;;;;;;;;;;;;;;;14.43;100.00;100157.97;5072758;28;19963;-70
2021/10/03 00:18:04;;;;;;;;;;;;;;;14.39;100.00;100167.47;5072813;28;20011;-70
2021/10/03 00:20:30;;;;;;;;;;;;;;;14.37;100.00;100161.31;5072940;28;19982;-69
2021/10/03 00:22:57;;;;;;;;;;;;;;;14.37;100.00;100159.44;5072672;28;19925;-70
2021/10/03 00:25:25;;;;;;;;;;;;;;;14.42;100.00;100155.38;5072763;28;20019;-70
2021/10/03 00:27:53;;;;;;;;;;;;;;;14.42;100.00;100156.25;5072512;28;19928;-69
2021/10/03 00:30:22;;;;;;;;;;;;;;;14.38;100.00;100149.41;5072655;28;19982;-69
2021/10/03 00:32:48;;;;;;;;;;;;;;;14.37;100.00;100147.69;5072659;28;20015;-69
2021/10/03 00:35:14;;;;;;;;;;;;;;;14.39;100.00;100143.75;5072695;28;20018;-70
2021/10/03 00:37:41;;;;;;;;;;;;;;;14.37;100.00;100142.22;5072549;28;20441;-70
2021/10/03 00:40:08;;;;;;;;;;;;;;;14.33;100.00;100135.38;5072327;28;20022;-69
2021/10/03 00:42:35;;;;;;;;;;;;;;;14.31;100.00;100121.91;5072415;28;20332;-70
2021/10/03 00:45:01;;;;;;;;;;;;;;;14.29;100.00;100114.88;5072435;28;19964;-69
2021/10/03 00:47:29;;;;;;;;;;;;;;;14.24;100.00;100123.53;5072109;28;19967;-70
2021/10/03 00:49:57;;;;;;;;;;;;;;;14.26;100.00;100128.84;5072605;28;19964;-70
2021/10/03 00:52:23;;;;;;;;;;;;;;;14.23;100.00;100133.63;5072019;28;20018;-70
2021/10/03 00:54:50;;;;;;;;;;;;;;;14.24;100.00;100126.28;5072402;28;20011;-70
2021/10/03 00:57:16;;;;;;;;;;;;;;;14.25;100.00;100129.88;5071881;28;19960;-69
2021/10/03 00:59:42;;;;;;;;;;;;;;;14.25;100.00;100138.06;5072524;28;20001;-70
2021/10/03 01:02:09;;;;;;;;;;;;;;;14.23;100.00;100141.81;5071005;28;19924;-70
2021/10/03 01:04:36;;;;;;;;;;;;;;;14.21;100.00;100130.19;5071480;28;20023;-70
2021/10/03 01:07:03;;;;;;;;;;;;;;;14.25;100.00;100121.69;5072119;28;19983;-69
2021/10/03 01:09:29;;;;;;;;;;;;;;;14.25;100.00;100127.16;5071843;28;19970;-69
2021/10/03 01:11:55;;;;;;;;;;;;;;;14.22;100.00;100122.88;5072084;28;19985;-70
2021/10/03 01:14:22;;;;;;;;;;;;;;;14.16;100.00;100118.94;5071921;28;20024;-73
2021/10/03 01:16:49;;;;;;;;;;;;;;;14.15;100.00;100124.53;5071641;28;19925;-73
2021/10/03 01:19:16;;;;;;;;;;;;;;;14.12;100.00;100114.78;5072036;28;19951;-72
2021/10/03 01:21:44;;;;;;;;;;;;;;;14.10;100.00;100111.38;5071677;28;20019;-73
2021/10/03 01:24:10;;;;;;;;;;;;;;;14.05;100.00;100114.59;5072283;28;19924;-73
2021/10/03 01:26:36;;;;;;;;;;;;;;;13.98;100.00;100113.53;5071721;28;20023;-73
2021/10/03 01:29:03;;;;;;;;;;;;;;;13.97;100.00;100113.69;5072263;28;20019;-73
2021/10/03 01:31:31;;;;;;;;;;;;;;;13.93;100.00;100113.16;5071523;28;20269;-73
2021/10/03 01:33:58;;;;;;;;;;;;;;;13.93;100.00;100101.41;5071896;28;20023;-73
2021/10/03 01:36:24;;;;;;;;;;;;;;;13.96;100.00;100095.59;5071685;28;19925;-73
2021/10/03 01:38:52;;;;;;;;;;;;;;;13.95;100.00;100096.63;5071658;28;19925;-73
2021/10/03 01:41:19;;;;;;;;;;;;;;;13.93;100.00;100094.06;5071743;28;20361;-73
2021/10/03 01:43:46;;;;;;;;;;;;;;;13.91;100.00;100090.66;5071976;28;19956;-73
2021/10/03 01:46:12;;;;;;;;;;;;;;;13.92;100.00;100097.78;5071672;28;19972;-73
2021/10/03 01:48:39;;;;;;;;;;;;;;;13.96;100.00;100098.34;5071787;28;19964;-73
2021/10/03 01:51:07;;;;;;;;;;;;;;;13.97;100.00;100092.72;5071506;28;19928;-73
2021/10/03 01:53:35;;;;;;;;;;;;;;;14.00;100.00;100091.53;5071452;28;20019;-72
2021/10/03 01:56:11;;;;;;;;;;;;;;;13.99;100.00;100095.28;5071461;28;19970;-73
2021/10/03 01:58:38;;;;;;;;;;;;;;;13.97;100.00;100098.16;5071478;28;20023;-73
2021/10/03 02:01:07;;;;;;;;;;;;;;;13.98;100.00;100096.31;5071573;28;19938;-72
2021/10/03 02:03:34;;;;;;;;;;;;;;;13.94;100.00;100087.59;5053408;28;20026;-73
2021/10/03 02:06:00;;;;;;;;;;;;;;;13.93;100.00;100080.41;5071598;28;20028;-73
2021/10/03 02:08:26;;;;;;;;;;;;;;;13.90;100.00;100087.03;5071455;28;20022;-73
2021/10/03 02:10:53;;;;;;;;;;;;;;;13.87;100.00;100090.13;5071580;28;20019;-73
2021/10/03 02:13:22;;;;;;;;;;;;;;;13.82;100.00;100084.28;5071525;28;19960;-73
2021/10/03 02:15:48;;;;;;;;;;;;;;;13.81;100.00;100084.44;5072040;28;20020;-73
2021/10/03 02:18:15;;;;;;;;;;;;;;;13.77;100.00;100077.59;5075242;28;19931;-73
2021/10/03 02:20:42;;;;;;;;;;;;;;;13.73;100.00;100080.66;5075024;28;20001;-70
2021/10/03 02:23:10;;;;;;;;;;;;;;;13.72;100.00;100094.44;5073970;28;20023;-70
2021/10/03 02:25:43;;;;;;;;;;;;;;;13.71;100.00;100090.03;5074961;28;20031;-70
2021/10/03 02:28:09;;;;;;;;;;;;;;;13.68;100.00;100088.47;5075004;28;20015;-70
2021/10/03 02:30:37;;;;;;;;;;;;;;;13.62;100.00;100077.34;5074974;28;20027;-69
2021/10/03 02:33:03;;;;;;;;;;;;;;;13.57;100.00;100072.34;5074842;28;20015;-70
2021/10/03 02:35:29;;;;;;;;;;;;;;;13.54;100.00;100069.97;5074933;28;19924;-70
2021/10/03 02:37:56;;;;;;;;;;;;;;;13.56;100.00;100074.25;5074677;28;19924;-69
2021/10/03 02:40:22;;;;;;;;;;;;;;;13.52;100.00;100078.31;5074842;28;20008;-70
2021/10/03 02:42:49;;;;;;;;;;;;;;;13.49;100.00;100067.69;5073607;28;20352;-69
2021/10/03 02:45:15;;;;;;;;;;;;;;;13.47;100.00;100074.31;5075119;28;20479;-70
2021/10/03 02:47:43;;;;;;;;;;;;;;;13.45;100.00;100079.09;5074804;28;20022;-70
2021/10/03 02:50:09;;;;;;;;;;;;;;;13.45;100.00;100069.03;5073332;28;20011;-70
2021/10/03 02:52:36;;;;;;;;;;;;;;;13.48;100.00;100076.91;5074389;28;19934;-69
2021/10/03 02:55:02;;;;;;;;;;;;;;;13.51;100.00;100073.88;5074548;28;19993;-70
2021/10/03 02:57:28;;;;;;;;;;;;;;;13.47;100.00;100064.28;5074248;28;20396;-70
2021/10/03 02:59:54;;;;;;;;;;;;;;;13.50;100.00;100072.13;5074617;28;20358;-70
2021/10/03 03:02:21;;;;;;;;;;;;;;;13.48;100.00;100051.50;5074116;28;19951;-72
2021/10/03 03:04:48;;;;;;;;;;;;;;;13.49;100.00;100050.50;5073172;28;19954;-71
2021/10/03 03:07:14;;;;;;;;;;;;;;;13.50;100.00;100057.66;5073996;28;20015;-72
2021/10/03 03:09:41;;;;;;;;;;;;;;;13.50;100.00;100063.13;5073083;28;20364;-72
2021/10/03 03:12:07;;;;;;;;;;;;;;;13.50;100.00;100063.97;5074383;28;19924;-72
2021/10/03 03:14:34;;;;;;;;;;;;;;;13.53;100.00;100051.88;5073993;28;20011;-71
2021/10/03 03:17:12;;;;;;;;;;;;;;;13.53;100.00;100069.09;5073892;28;20015;-73
2021/10/03 03:19:39;;;;;;;;;;;;;;;13.52;100.00;100056.50;5073323;28;19989;-74
2021/10/03 03:22:07;;;;;;;;;;;;;;;13.51;100.00;100054.78;5072269;28;19925;-73
2021/10/03 03:24:33;;;;;;;;;;;;;;;13.52;100.00;100052.88;5074233;28;20023;-74
2021/10/03 03:26:59;;;;;;;;;;;;;;;13.50;100.00;100052.22;5073393;28;20022;-74
2021/10/03 03:29:25;;;;;;;;;;;;;;;13.49;100.00;100048.63;5073895;28;19982;-74
2021/10/03 03:31:53;;;;;;;;;;;;;;;13.47;100.00;100053.38;5073652;28;19968;-74
2021/10/03 03:34:19;;;;;;;;;;;;;;;13.51;100.00;100054.78;5073611;28;19924;-73
2021/10/03 03:36:46;;;;;;;;;;;;;;;13.52;100.00;100048.31;5073383;28;19978;-73
2021/10/03 03:39:13;;;;;;;;;;;;;;;13.53;100.00;100044.53;5073346;28;20027;-74
2021/10/03 03:41:40;;;;;;;;;;;;;;;13.55;100.00;100049.88;5073541;28;20355;-74
2021/10/03 03:44:06;;;;;;;;;;;;;;;13.54;100.00;100043.53;5073936;28;20015;-74
2021/10/03 03:46:32;;;;;;;;;;;;;;;13.54;100.00;100023.59;5073401;28;20023;-74
2021/10/03 03:48:59;;;;;;;;;;;;;;;13.58;100.00;100032.34;5072867;28;20490;-74
2021/10/03 03:51:25;;;;;;;;;;;;;;;13.60;100.00;100027.56;5072719;28;20022;-74
2021/10/03 03:53:51;;;;;;;;;;;;;;;13.62;100.00;100036.44;5073388;28;20011;-73
2021/10/03 03:56:19;;;;;;;;;;;;;;;13.62;100.00;100052.81;5073244;28;19978;-73
2021/10/03 03:58:45;;;;;;;;;;;;;;;13.61;100.00;100038.28;5073593;28;19928;-73
2021/10/03 04:01:11;;;;;;;;;;;;;;;13.60;100.00;100043.91;5073047;28;19925;-73
2021/10/03 04:03:38;;;;;;;;;;;;;;;13.59;100.00;100044.91;5072011;28;19924;-73
2021/10/03 04:06:05;;;;;;;;;;;;;;;13.57;100.00;100050.53;5072925;28;20362;-73
2021/10/03 04:08:31;;;;;;;;;;;;;;;13.58;100.00;100049.53;5073386;28;20340;-73
2021/10/03 04:10:58;;;;;;;;;;;;;;;13.59;100.00;100050.38;5071787;28;20019;-73
2021/10/03 04:13:25;;;;;;;;;;;;;;;13.58;100.00;100043.25;5073251;28;20023;-73
2021/10/03 04:15:51;;;;;;;;;;;;;;;13.56;100.00;100033.34;5072891;28;20022;-73
2021/10/03 04:18:18;;;;;;;;;;;;;;;13.55;100.00;100038.97;5071424;28;20195;-73
2021/10/03 04:20:44;;;;;;;;;;;;;;;13.53;100.00;100036.38;5071623;28;20018;-73
2021/10/03 04:23:10;;;;;;;;;;;;;;;13.55;100.00;100034.34;5072903;28;19929;-73
2021/10/03 04:25:36;;;;;;;;;;;;;;;13.53;100.00;100036.38;5072725;28;20023;-74
2021/10/03 04:28:03;;;;;;;;;;;;;;;13.50;100.00;100036.69;5072593;28;19995;-73
2021/10/03 04:30:31;;;;;;;;;;;;;;;13.50;100.00;100039.44;5072546;28;19982;-73
2021/10/03 04:32:57;;;;;;;;;;;;;;;13.49;100.00;100032.25;5072692;28;20015;-74
2021/10/03 04:35:23;;;;;;;;;;;;;;;13.49;100.00;100045.88;5072481;28;19924;-73
2021/10/03 04:37:49;;;;;;;;;;;;;;;13.48;100.00;100043.31;5072091;28;20038;-73
2021/10/03 04:40:16;;;;;;;;;;;;;;;13.48;100.00;100043.31;5072068;28;19955;-73
2021/10/03 04:42:44;;;;;;;;;;;;;;;13.49;100.00;100043.16;5072482;28;20026;-73
2021/10/03 04:45:11;;;;;;;;;;;;;;;13.49;100.00;100040.44;5072432;28;20463;-73
2021/10/03 04:47:38;;;;;;;;;;;;;;;13.47;100.00;100036.16;5072144;28;20023;-73
2021/10/03 04:50:05;;;;;;;;;;;;;;;13.48;100.00;100048.78;5071254;28;20019;-74
2021/10/03 04:52:31;;;;;;;;;;;;;;;13.45;100.00;100038.19;5071998;28;20030;-73
2021/10/03 04:54:58;;;;;;;;;;;;;;;13.45;100.00;100039.03;5072328;28;19924;-73
2021/10/03 04:57:24;;;;;;;;;;;;;;;13.44;100.00;100037.34;5071995;28;20027;-73
2021/10/03 04:59:50;;;;;;;;;;;;;;;13.42;100.00;100039.38;5072276;28;19924;-73
2021/10/03 05:02:17;;;;;;;;;;;;;;;13.41;100.00;100037.66;5072054;28;20011;-74
2021/10/03 05:04:44;;;;;;;;;;;;;;;13.39;100.00;100034.25;5072209;28;19925;-73
2021/10/03 05:07:10;;;;;;;;;;;;;;;13.38;100.00;100041.56;5072073;28;19970;-70
2021/10/03 05:09:37;;;;;;;;;;;;;;;13.38;100.00;100048.88;5071949;28;20011;-70
2021/10/03 05:12:03;;;;;;;;;;;;;;;13.39;100.00;100045.16;5072114;28;19924;-71
2021/10/03 05:14:30;;;;;;;;;;;;;;;13.38;100.00;100043.44;5071913;28;20019;-72
2021/10/03 05:16:56;;;;;;;;;;;;;;;13.37;100.00;100053.50;5071920;28;19964;-72
2021/10/03 05:19:22;;;;;;;;;;;;;;;13.41;100.00;100053.16;5071731;28;20447;-72
2021/10/03 05:21:50;;;;;;;;;;;;;;;13.41;100.00;100058.63;5072001;28;20035;-72
2021/10/03 05:24:16;;;;;;;;;;;;;;;13.41;100.00;100042.25;5072100;28;20024;-72
2021/10/03 05:26:42;;;;;;;;;;;;;;;13.42;100.00;100050.28;5070571;28;20399;-72
2021/10/03 05:29:09;;;;;;;;;;;;;;;13.43;100.00;100045.66;5070977;28;20137;-72
2021/10/03 05:31:35;;;;;;;;;;;;;;;13.43;100.00;100046.53;5071620;28;19982;-73
2021/10/03 05:34:01;;;;;;;;;;;;;;;13.43;100.00;100042.94;5071947;28;20016;-72
2021/10/03 05:36:28;;;;;;;;;;;;;;;13.44;100.00;100041.94;5070406;28;20027;-71
2021/10/03 05:38:56;;;;;;;;;;;;;;;13.46;100.00;100050.81;5071496;28;20018;-73
2021/10/03 05:41:23;;;;;;;;;;;;;;;13.48;100.00;100055.09;5071629;28;20035;-73
2021/10/03 05:43:49;;;;;;;;;;;;;;;13.47;100.00;100058.84;5071671;28;19978;-73
2021/10/03 05:46:16;;;;;;;;;;;;;;;13.48;100.00;100055.09;5071591;28;20331;-72
2021/10/03 05:48:42;;;;;;;;;;;;;;;13.50;100.00;100052.22;5071391;28;20011;-73
2021/10/03 05:51:09;;;;;;;;;;;;;;;13.52;100.00;100050.16;5074931;28;20023;-72
2021/10/03 05:53:35;;;;;;;;;;;;;;;13.50;100.00;100055.78;5075632;28;19935;-73
2021/10/03 05:56:03;;;;;;;;;;;;;;;13.50;100.00;100057.66;5075663;28;19929;-72
2021/10/03 05:58:29;;;;;;;;;;;;;;;13.50;100.00;100050.31;5075541;28;20047;-73
2021/10/03 06:00:55;;;;;;;;;;;;;;;13.50;100.00;100061.22;5075725;28;20455;-73
2021/10/03 06:03:22;;;;;;;;;;;;;;;13.54;100.00;100050.88;5075490;28;19924;-72
2021/10/03 06:05:48;;;;;;;;;;;;;;;13.55;100.00;100050.72;5075338;28;19932;-72
2021/10/03 06:08:15;;;;;;;;;;;;;;;13.58;100.00;100051.41;5075734;28;20443;-73
2021/10/03 06:10:41;;;;;;;;;;;;;;;13.59;100.00;100050.38;5075371;28;19960;-73
2021/10/03 06:13:09;;;;;;;;;;;;;;;13.63;100.00;100052.63;5073989;28;19931;-73
2021/10/03 06:15:37;;;;;;;;;;;;;;;13.63;100.00;100049.03;5074990;28;19929;-72
2021/10/03 06:18:03;;;;;;;;;;;;;;;13.63;100.00;100044.47;5073731;28;19935;-72
2021/10/03 06:20:30;;;;;;;;;;;;;;;13.65;100.00;100056.03;5075029;28;19928;-72
2021/10/03 06:22:56;;;;;;;;;;;;;;;13.66;100.00;100043.28;5075140;28;20020;-72
2021/10/03 06:25:22;;;;;;;;;;;;;;;13.67;100.00;100044.97;5075297;28;20023;-72
2021/10/03 06:27:50;;;;;;;;;;;;;;;13.69;100.00;100048.41;5074966;28;20453;-73
2021/10/03 06:30:17;;;;;;;;;;;;;;;13.69;100.00;100042.94;5074954;28;19924;-73
2021/10/03 06:32:44;;;;;;;;;;;;;;;13.72;100.00;100050.78;5073616;28;19924;-72
2021/10/03 06:35:10;;;;;;;;;;;;;;;13.75;100.00;100049.63;5073631;28;20019;-73
2021/10/03 06:37:36;;;;;;;;;;;;;;;13.80;100.00;100056.31;5074702;28;19928;-72
2021/10/03 06:40:03;;;;;;;;;;;;;;;13.84;100.00;100065.03;5074788;28;19970;-73
2021/10/03 06:42:29;;;;;;;;;;;;;;;13.86;100.00;100063.00;5074408;28;20372;-73
2021/10/03 06:44:56;;;;;;;;;;;;;;;13.92;100.00;100064.22;5074757;28;20039;-73
2021/10/03 06:47:23;;;;;;;;;;;;;;;13.96;100.00;100065.59;5074350;28;20031;-70
2021/10/03 06:49:50;;;;;;;;;;;;;;;14.02;100.00;100059.50;5074850;28;19928;-69
2021/10/03 06:52:16;;;;;;;;;;;;;;;14.05;100.00;100057.28;5074518;28;20451;-69
2021/10/03 06:54:43;;;;;;;;;;;;;;;14.08;100.00;100061.56;5074752;28;19960;-69
2021/10/03 06:57:09;;;;;;;;;;;;;;;14.10;100.00;100047.78;5074520;28;20020;-69
2021/10/03 06:59:35;;;;;;;;;;;;;;;14.14;100.00;100054.59;5074159;28;20315;-69
2021/10/03 07:02:03;;;;;;;;;;;;;;;14.22;100.00;100057.38;5073545;28;19967;-69
2021/10/03 07:04:31;;;;;;;;;;;;;;;14.26;100.00;100063.31;5074283;28;20028;-70
2021/10/03 07:06:58;;;;;;;;;;;;;;;14.31;100.00;100063.69;5074269;28;19931;-69
2021/10/03 07:09:24;;;;;;;;;;;;;;;14.38;100.00;100065.59;5074385;28;20023;-69
2021/10/03 07:11:50;;;;;;;;;;;;;;;14.48;100.00;100068.19;5073970;28;19951;-69
2021/10/03 07:14:16;;;;;;;;;;;;;;;14.54;100.00;100063.94;5074262;28;19968;-69
2021/10/03 07:16:43;;;;;;;;;;;;;;;14.57;100.00;100061.72;5072551;28;19929;-69
2021/10/03 07:19:09;;;;;;;;;;;;;;;14.61;100.00;100064.13;5074271;28;20023;-69
2021/10/03 07:21:37;;;;;;;;;;;;;;;14.64;100.00;100050.16;5073816;28;20362;-69
2021/10/03 07:24:04;;;;;;;;;;;;;;;14.70;100.00;100055.81;5074286;28;20019;-69
2021/10/03 07:26:30;;;;;;;;;;;;;;;14.70;100.00;100053.09;5073884;28;19924;-70
2021/10/03 07:28:56;;;;;;;;;;;;;;;14.71;100.00;100060.25;5073991;28;20368;-70
2021/10/03 07:31:22;;;;;;;;;;;;;;;14.70;100.00;100052.25;5073744;28;20011;-72
2021/10/03 07:33:49;;;;;;;;;;;;;;;14.66;100.00;100035.31;5072766;28;20027;-70
2021/10/03 07:36:17;;;;;;;;;;;;;;;14.68;100.00;100030.53;5073720;28;20019;-69
2021/10/03 07:38:44;;;;;;;;;;;;;;;14.68;100.00;100024.22;5073439;28;19929;-69
2021/10/03 07:41:10;;;;;;;;;;;;;;;14.71;100.00;100024.75;5073573;28;20039;-69
2021/10/03 07:43:37;;;;;;;;;;;;;;;14.82;100.00;100058.25;5073682;28;19968;-69
2021/10/03 07:46:03;;;;;;;;;;;;;;;14.88;100.00;100052.09;5073359;28;20395;-69
2021/10/03 07:48:30;;;;;;;;;;;;;;;14.95;100.00;100042.19;5073694;28;19924;-69
2021/10/03 07:50:56;;;;;;;;;;;;;;;14.95;100.00;100041.31;5073296;28;20030;-69
2021/10/03 07:53:22;;;;;;;;;;;;;;;14.97;100.00;100045.59;5073284;28;20434;-70
2021/10/03 07:55:50;;;;;;;;;;;;;;;15.04;100.00;100046.63;5073343;28;20035;-69
2021/10/03 07:58:16;;;;;;;;;;;;;;;15.10;100.00;100046.97;5073107;28;20019;-69
2021/10/03 08:00:42;;;;;;;;;;;;;;;15.21;100.00;100054.84;5072897;28;20380;-69
2021/10/03 08:03:09;;;;;;;;;;;;;;;15.29;100.00;100049.38;5073124;28;20023;-69
2021/10/03 08:05:35;;;;;;;;;;;;;;;15.36;100.00;100055.84;5073018;28;19932;-69
2021/10/03 08:08:03;;;;;;;;;;;;;;;15.38;100.00;100058.44;5073037;28;20421;-69
2021/10/03 08:10:29;;;;;;;;;;;;;;;15.40;100.00;100072.75;5072772;28;20370;-69
2021/10/03 08:12:56;;;;;;;;;;;;;;;15.40;100.00;100057.19;5073082;28;20257;-69
2021/10/03 08:15:25;;;;;;;;;;;;;;;15.40;100.00;100049.00;5072871;28;20030;-69
2021/10/03 08:17:52;;;;;;;;;;;;;;;15.45;100.00;100047.66;5072792;28;19932;-69
2021/10/03 08:20:18;;;;;;;;;;;;;;;15.48;100.00;100056.34;5072552;28;20020;-69
2021/10/03 08:22:44;;;;;;;;;;;;;;;15.50;100.00;100050.69;5072531;28;19928;-69
2021/10/03 08:25:11;;;;;;;;;;;;;;;15.51;100.00;100046.94;5072681;28;19964;-69
2021/10/03 08:27:37;;;;;;;;;;;;;;;15.57;100.00;100055.31;5072301;28;19928;-69
2021/10/03 08:30:06;;;;;;;;;;;;;;;15.57;100.00;100051.72;5072461;28;19968;-69
2021/10/03 08:32:32;;;;;;;;;;;;;;;15.61;100.00;100041.28;5072052;28;20019;-70
2021/10/03 08:34:59;;;;;;;;;;;;;;;15.71;100.00;100044.66;5072362;28;20386;-69
2021/10/03 08:37:25;;;;;;;;;;;;;;;15.75;100.00;100037.81;5070892;28;20311;-69
2021/10/03 08:39:52;;;;;;;;;;;;;;;15.83;100.00;100050.66;5072283;28;19931;-69
2021/10/03 08:42:18;;;;;;;;;;;;;;;15.80;100.00;100035.44;5072142;28;20015;-69
2021/10/03 08:44:44;;;;;;;;;;;;;;;15.85;100.00;100037.69;5072395;28;20465;-69
2021/10/03 08:47:12;;;;;;;;;;;;;;;15.88;100.00;100032.69;5072151;28;19939;-69
2021/10/03 08:49:39;;;;;;;;;;;;;;;15.99;100.00;100045.13;5071783;28;20378;-69
2021/10/03 08:52:05;;;;;;;;;;;;;;;16.03;100.00;100041.03;5070895;28;19931;-69
2021/10/03 08:54:34;;;;;;;;;;;;;;;16.10;100.00;100026.63;5072143;28;20359;-69
2021/10/03 08:57:01;;;;;;;;;;;;;;;16.22;100.00;100031.53;5070621;28;19971;-69
2021/10/03 08:59:27;;;;;;;;;;;;;;;16.34;100.00;100031.13;5071968;28;20027;-69
2021/10/03 09:01:54;;;;;;;;;;;;;;;16.54;100.00;100037.88;5071691;28;20028;-70
2021/10/03 09:04:29;;;;;;;;;;;;;;;16.63;100.00;100037.81;5071990;28;20027;-70
2021/10/03 09:07:00;;;;;;;;;;;;;;;16.71;100.00;100030.38;5072009;28;19928;-70
2021/10/03 09:09:48;;;;;;;;;;;;;;;16.78;100.00;100015.97;5071906;28;19928;-69
2021/10/03 09:12:31;;;;;;;;;;;;;;;17.00;100.00;100019.78;5071940;28;19960;-69
2021/10/03 09:14:58;;;;;;;;;;;;;;;17.07;100.00;100020.72;5071788;28;19925;-70
2021/10/03 09:17:25;;;;;;;;;;;;;;;17.30;100.00;100019.84;5071599;28;20022;-69
2021/10/03 09:20:13;;;;;;;;;;;;;;;17.46;100.00;100014.19;5071642;28;20019;-72
2021/10/03 09:23:00;;;;;;;;;;;;;;;17.60;100.00;100008.91;5071499;28;20011;-72
2021/10/03 09:25:30;;;;;;;;;;;;;;;17.64;100.00;100015.75;5069834;28;20341;-71
2021/10/03 09:27:56;;;;;;;;;;;;;;;17.73;100.00;100020.94;5071469;28;20007;-72
2021/10/03 09:30:23;;;;;;;;;;;;;;;17.85;100.00;100018.59;5071092;28;19959;-72
2021/10/03 09:32:53;;;;;;;;;;;;;;;17.94;100.00;100010.28;5071582;28;19924;-72
2021/10/03 09:35:21;;;;;;;;;;;;;;;17.95;100.00;100021.06;5071750;28;20476;-72
2021/10/03 09:37:47;;;;;;;;;;;;;;;18.03;100.00;100009.97;5071313;28;20023;-72
2021/10/03 09:40:15;;;;;;;;;;;;;;;18.09;100.00;100026.72;5071536;28;19931;-71
2021/10/03 09:42:50;;;;;;;;;;;;;;;18.20;100.00;100013.38;5071245;28;20300;-72
2021/10/03 09:45:21;;;;;;;;;;;;;;;18.20;100.00;100010.63;5071544;28;19924;-72
2021/10/03 09:47:56;;;;;;;;;;;;;;;18.13;100.00;100001.47;5071539;28;19989;-72
2021/10/03 09:50:24;;;;;;;;;;;;;;;18.22;100.00;100016.75;5071425;28;20066;-72
2021/10/03 09:52:51;;;;;;;;;;;;;;;18.20;100.00;100016.13;5071542;28;20303;-73
2021/10/03 09:55:18;;;;;;;;;;;;;;;18.15;100.00;100004.84;5071336;28;20346;-72
2021/10/03 09:57:45;;;;;;;;;;;;;;;18.19;100.00;100010.81;5071246;28;19978;-71
2021/10/03 10:00:12;;;;;;;;;;;;;;;18.22;100.00;99991.19;5071327;28;20015;-72
2021/10/03 10:02:39;;;;;;;;;;;;;;;18.39;100.00;100008.31;5071183;28;19924;-72
2021/10/03 10:05:06;;;;;;;;;;;;;;;18.59;100.00;100011.28;5071270;28;19925;-72
2021/10/03 10:07:34;;;;;;;;;;;;;;;18.83;100.00;100014.72;5070566;28;20340;-72
2021/10/03 10:10:01;;;;;;;;;;;;;;;19.03;100.00;100009.44;5070120;28;20011;-73
2021/10/03 10:12:28;;;;;;;;;;;;;;;19.52;100.00;100025.06;5069065;28;20325;-73
2021/10/03 10:14:58;;;;;;;;;;;;;;;20.00;100.00;100015.22;5081365;28;19982;-72
2021/10/03 10:17:29;;;;;;;;;;;;;;;20.24;100.00;100011.09;5073720;28;19977;-75
2021/10/03 10:19:56;;;;;;;;;;;;;;;20.35;100.00;99998.63;5071538;28;20011;-70
2021/10/03 10:22:41;;;;;;;;;;;;;;;20.31;100.00;100005.59;5070727;28;20457;-70
2021/10/03 10:25:16;;;;;;;;;;;;;;;20.15;100.00;100013.19;5071187;28;19931;-70
2021/10/03 10:27:57;;;;;;;;;;;;;;;20.12;100.00;100013.56;5082180;28;19928;-70
2021/10/03 10:30:24;;;;;;;;;;;;;;;20.35;100.00;100021.53;5082177;28;19970;-70
2021/10/03 10:33:00;;;;;;;;;;;;;;;20.37;100.00;100013.88;5071058;28;20015;-69
2021/10/03 10:35:28;;;;;;;;;;;;;;;20.22;100.00;100019.56;5070820;28;19970;-69
2021/10/03 10:38:14;;;;;;;;;;;;;;;20.25;100.00;100004.53;5073271;28;20474;-69
2021/10/03 10:40:42;;;;;;;;;;;;;;;20.21;100.00;100004.06;5074449;28;19935;-69
2021/10/03 10:43:28;;;;;;;;;;;;;;;20.18;100.00;100000.91;5074587;28;20424;-69
2021/10/03 10:45:54;;;;;;;;;;;;;;;20.46;100.00;100003.53;5076540;28;19939;-69
2021/10/03 10:48:21;;;;;;;;;;;;;;;20.50;100.00;100004.81;5085954;28;20039;-70
2021/10/03 10:51:15;;;;;;;;;;;;;;;20.71;100.00;100019.53;5088779;28;20352;-70
2021/10/03 10:53:42;;;;;;;;;;;;;;;20.73;100.00;100014.69;5094157;28;20011;-69
2021/10/03 10:56:10;;;;;;;;;;;;;;;20.87;100.00;100007.25;5076151;28;20483;-69
2021/10/03 10:58:37;;;;;;;;;;;;;;;21.05;100.00;100006.66;5074141;28;20023;-68
2021/10/03 11:01:08;;;;;;;;;;;;;;;21.12;100.00;100006.66;5091393;28;20391;-68
2021/10/03 11:03:59;;;;;;;;;;;;;;;21.12;100.00;100013.03;5094472;28;20303;-69
2021/10/03 11:06:44;;;;;;;;;;;;;;;21.38;100.00;100005.81;5087627;28;19931;-68
2021/10/03 11:09:11;;;;;;;;;;;;;;;21.33;100.00;100002.84;5080776;28;19931;-70
2021/10/03 11:11:39;;;;;;;;;;;;;;;21.42;100.00;99990.53;5073667;28;20020;-70
2021/10/03 11:14:18;;;;;;;;;;;;;;;21.53;100.00;99998.19;5073977;28;20022;-70
2021/10/03 11:16:46;;;;;;;;;;;;;;;21.13;100.00;99987.13;5073604;28;19986;-70
2021/10/03 11:19:14;;;;;;;;;;;;;;;21.15;100.00;100004.34;5073858;28;19928;-70
2021/10/03 11:21:41;;;;;;;;;;;;;;;21.63;100.00;100010.69;5055688;28;20295;-70
2021/10/03 11:24:08;;;;;;;;;;;;;;;21.83;100.00;99996.84;5072555;28;20016;-70
2021/10/03 11:26:45;;;;;;;;;;;;;;;22.15;100.00;100006.09;5073629;28;20019;-70
2021/10/03 11:29:12;;;;;;;;;;;;;;;22.28;100.00;99993.31;5073617;28;19962;-70
2021/10/03 11:31:40;;;;;;;;;;;;;;;22.23;100.00;100005.00;5073466;28;20021;-70
2021/10/03 11:34:07;;;;;;;;;;;;;;;22.42;100.00;100007.94;5073680;28;20392;-70
2021/10/03 11:36:33;;;;;;;;;;;;;;;22.56;100.00;100017.84;5075789;28;20004;-70
2021/10/03 11:39:00;;;;;;;;;;;;;;;22.32;100.00;100016.66;5073561;28;20395;-69
2021/10/03 11:41:27;;;;;;;;;;;;;;;22.22;100.00;100012.44;5073178;28;19924;-70
2021/10/03 11:43:55;;;;;;;;;;;;;;;22.31;100.00;100013.03;5073505;28;19947;-70
2021/10/03 11:46:21;;;;;;;;;;;;;;;22.35;99.35;99989.44;5073079;28;20023;-70
2021/10/03 11:48:50;;;;;;;;;;;;;;;22.39;98.11;99982.44;5071803;28;19925;-70
2021/10/03 11:51:16;;;;;;;;;;;;;;;22.57;100.00;100001.03;5073203;28;20027;-70
2021/10/03 11:53:47;;;;;;;;;;;;;;;22.97;97.15;99999.94;5072871;28;19967;-71
2021/10/03 11:56:14;;;;;;;;;;;;;;;23.44;95.47;100015.31;5072985;28;20038;-70
2021/10/03 11:58:42;;;;;;;;;;;;;;;23.77;93.00;100001.19;5073368;28;19924;-75
2021/10/03 12:01:09;;;;;;;;;;;;;;;24.14;89.02;99998.41;5084918;28;20023;-75
2021/10/03 12:03:46;;;;;;;;;;;;;;;24.04;88.54;99996.19;5089255;28;20349;-76
2021/10/03 12:06:16;;;;;;;;;;;;;;;24.34;86.71;100011.19;5085099;28;19932;-76
2021/10/03 12:08:43;;;;;;;;;;;;;;;23.99;88.92;100001.59;5073161;28;20027;-76
2021/10/03 12:11:09;;;;;;;;;;;;;;;24.21;89.83;99996.44;5079180;28;20022;-76
2021/10/03 12:13:36;;;;;;;;;;;;;;;24.43;85.74;100001.47;5091273;28;20015;-76
2021/10/03 12:16:17;;;;;;;;;;;;;;;24.50;83.58;99993.06;5092811;28;19931;-76
2021/10/03 12:18:44;;;;;;;;;;;;;;;24.75;83.22;99990.19;5089153;28;19948;-76
2021/10/03 12:21:14;;;;;;;;;;;;;;;24.32;86.73;99996.72;5072855;28;19997;-76
2021/10/03 12:23:44;;;;;;;;;;;;;;;24.32;89.65;99997.56;5074691;28;20042;-76
2021/10/03 12:26:12;;;;;;;;;;;;;;;24.37;88.54;99999.63;5091460;28;20328;-76
2021/10/03 12:28:52;;;;;;;;;;;;;;;24.38;89.83;99999.38;5090877;28;19928;-75
2021/10/03 12:34:30;;;;;;;;;;;;;;;24.32;85.94;99985.63;5088816;27;20019;-76